createdAt,value
2022-10-12T00:01:33.000Z,0.65
2022-10-12T00:03:59.951Z,0.60
2022-10-12T00:06:26.601Z,1.17
2022-10-12T00:08:54.533Z,1.17
2022-10-12T00:11:27.307Z,0.73
2022-10-12T00:13:54.888Z,0.73
2022-10-12T00:16:23.441Z,0.40
2022-10-12T00:18:55.439Z,1.23
2022-10-12T00:21:24.038Z,1.40
2022-10-12T00:23:51.449Z,1.00
2022-10-12T00:26:21.545Z,1.23
2022-10-12T00:28:49.506Z,0.93
2022-10-12T00:31:19.060Z,0.80
2022-10-12T00:33:46.607Z,1.10
2022-10-12T00:36:19.882Z,0.88
2022-10-12T00:38:46.847Z,1.30
2022-10-12T00:41:15.107Z,1.23
2022-10-12T00:43:43.292Z,1.10
2022-10-12T00:46:42.564Z,1.20
2022-10-12T00:49:15.228Z,1.23
2022-10-12T00:51:44.292Z,1.10
2022-10-12T00:54:16.415Z,1.10
2022-10-12T00:56:45.527Z,1.40
2022-10-12T00:59:20.694Z,1.12
2022-10-12T01:01:47.581Z,1.05
2022-10-12T01:04:14.701Z,1.30
2022-10-12T01:06:41.413Z,1.50
2022-10-12T01:09:08.018Z,1.50
2022-10-12T01:11:34.902Z,1.17
2022-10-12T01:14:01.798Z,1.30
2022-10-12T01:16:41.034Z,0.98
2022-10-12T01:19:29.997Z,1.27
2022-10-12T01:22:05.851Z,1.33
2022-10-12T01:24:54.499Z,1.15
2022-10-12T01:27:32.774Z,1.45
2022-10-12T01:30:13.253Z,1.45
2022-10-12T01:32:49.657Z,1.80
2022-10-12T01:35:25.735Z,1.73
2022-10-12T01:37:55.165Z,1.00
2022-10-12T01:40:37.262Z,1.20
2022-10-12T01:43:04.475Z,1.00
2022-10-12T01:45:31.779Z,1.27
2022-10-12T01:47:58.733Z,1.95
2022-10-12T01:50:37.194Z,1.45
2022-10-12T01:53:04.047Z,1.65
2022-10-12T01:55:40.645Z,1.60
2022-10-12T01:58:20.171Z,1.60
2022-10-12T02:00:53.610Z,1.70
2022-10-12T02:03:44.031Z,1.00
2022-10-12T02:06:16.125Z,1.42
2022-10-12T02:11:17.688Z,1.50
2022-10-12T02:13:48.798Z,2.10
2022-10-12T02:16:19.926Z,1.57
2022-10-12T02:18:54.566Z,1.40
2022-10-12T02:21:25.768Z,1.73
2022-10-12T02:23:56.638Z,1.23
2022-10-12T02:26:23.957Z,2.13
2022-10-12T02:28:50.984Z,1.87
2022-10-12T02:31:20.369Z,1.77
2022-10-12T02:33:57.820Z,1.65
2022-10-12T02:36:34.337Z,1.05
2022-10-12T02:39:13.496Z,1.33
2022-10-12T02:41:47.546Z,1.58
2022-10-12T02:44:19.686Z,1.40
2022-10-12T02:46:48.409Z,1.48
2022-10-12T02:49:17.454Z,1.85
2022-10-12T02:51:45.193Z,1.80
2022-10-12T02:54:12.637Z,1.48
2022-10-12T02:56:44.891Z,1.40
2022-10-12T03:01:39.621Z,1.75
2022-10-12T03:04:06.590Z,2.10
2022-10-12T03:06:33.291Z,1.50
2022-10-12T03:09:00.246Z,1.60
2022-10-12T03:11:26.936Z,1.45
2022-10-12T03:13:56.671Z,1.40
2022-10-12T03:16:24.775Z,2.12
2022-10-12T03:18:52.324Z,1.45
2022-10-12T03:21:18.947Z,1.87
2022-10-12T03:23:45.914Z,1.60
2022-10-12T03:26:12.554Z,1.90
2022-10-12T03:28:39.293Z,1.23
2022-10-12T03:31:06.528Z,1.58
2022-10-12T03:33:33.122Z,1.55
2022-10-12T03:35:59.821Z,2.17
2022-10-12T03:38:26.785Z,1.35
2022-10-12T03:40:53.502Z,1.70
2022-10-12T03:43:20.194Z,2.05
2022-10-12T03:45:47.437Z,1.83
2022-10-12T03:48:14.103Z,1.85
2022-10-12T03:50:40.802Z,1.75
2022-10-12T03:53:07.841Z,1.98
2022-10-12T03:55:34.498Z,1.70
2022-10-12T03:58:01.230Z,1.12
2022-10-12T04:00:28.553Z,1.35
2022-10-12T04:02:55.655Z,1.67
2022-10-12T04:05:22.731Z,1.98
2022-10-12T04:07:49.762Z,1.75
2022-10-12T04:10:16.827Z,2.33
2022-10-12T04:12:43.478Z,1.60
2022-10-12T04:15:10.581Z,1.40
2022-10-12T04:17:38.172Z,1.48
2022-10-12T04:20:05.947Z,1.48
2022-10-12T04:22:32.646Z,1.33
2022-10-12T04:24:59.531Z,1.50
2022-10-12T04:27:26.145Z,1.20
2022-10-12T04:29:53.007Z,1.40
2022-10-12T04:32:19.922Z,1.50
2022-10-12T04:34:46.525Z,1.70
2022-10-12T04:37:13.289Z,1.98
2022-10-12T04:39:40.126Z,1.85
2022-10-12T04:42:09.411Z,1.60
2022-10-12T04:44:36.239Z,1.20
2022-10-12T04:47:03.318Z,1.98
2022-10-12T04:49:29.960Z,1.85
2022-10-12T04:51:56.646Z,1.90
2022-10-12T04:54:23.505Z,1.02
2022-10-12T04:56:50.162Z,1.40
2022-10-12T04:59:16.880Z,1.73
2022-10-12T05:01:43.904Z,1.12
2022-10-12T05:04:10.644Z,1.30
2022-10-12T05:06:37.366Z,1.65
2022-10-12T05:09:04.376Z,1.27
2022-10-12T05:11:31.239Z,1.58
2022-10-12T05:13:58.148Z,1.50
2022-10-12T05:16:25.123Z,1.55
2022-10-12T05:18:51.930Z,1.08
2022-10-12T05:21:18.574Z,1.17
2022-10-12T05:23:49.685Z,1.10
2022-10-12T05:26:16.350Z,1.55
2022-10-12T05:28:43.081Z,1.48
2022-10-12T05:31:09.946Z,0.98
2022-10-12T05:33:36.697Z,1.27
2022-10-12T05:36:03.623Z,1.42
2022-10-12T05:38:30.527Z,1.42
2022-10-12T05:41:00.554Z,1.58
2022-10-12T05:43:28.162Z,1.10
2022-10-12T05:45:55.078Z,0.88
2022-10-12T05:48:21.938Z,0.98
2022-10-12T05:50:48.717Z,1.12
2022-10-12T05:53:15.715Z,1.10
2022-10-12T05:55:52.236Z,0.80
2022-10-12T05:58:19.184Z,1.27
2022-10-12T06:00:45.834Z,1.00
2022-10-12T06:03:13.148Z,1.20
2022-10-12T06:05:41.786Z,1.37
2022-10-12T06:08:09.111Z,0.98
2022-10-12T06:10:37.711Z,1.70
2022-10-12T06:13:04.343Z,1.48
2022-10-12T06:15:31.450Z,1.35
2022-10-12T06:17:58.322Z,0.93
2022-10-12T06:20:24.969Z,1.08
2022-10-12T06:22:51.617Z,1.15
2022-10-12T06:25:18.479Z,1.12
2022-10-12T06:27:46.128Z,0.88
2022-10-12T06:30:13.906Z,1.23
2022-10-12T06:32:41.050Z,0.90
2022-10-12T06:35:08.424Z,0.90
2022-10-12T06:37:49.635Z,1.30
2022-10-12T06:40:18.620Z,0.70
2022-10-12T06:43:12.099Z,0.73
2022-10-12T06:45:39.089Z,1.15
2022-10-12T06:48:05.828Z,0.82
2022-10-12T06:50:32.478Z,0.88
2022-10-12T06:52:59.492Z,1.00
2022-10-12T06:55:26.364Z,0.90
2022-10-12T06:57:53.146Z,1.20
2022-10-12T07:00:20.149Z,0.95
2022-10-12T07:02:50.316Z,0.95
2022-10-12T07:05:17.293Z,0.95
2022-10-12T07:07:44.235Z,1.00
2022-10-12T07:10:11.531Z,1.60
2022-10-12T07:12:39.421Z,0.75
2022-10-12T07:15:07.691Z,1.15
2022-10-12T07:17:34.645Z,1.17
2022-10-12T07:20:01.349Z,1.30
2022-10-12T07:22:28.344Z,1.17
2022-10-12T07:24:55.112Z,1.00
2022-10-12T07:27:21.809Z,0.77
2022-10-12T07:29:48.688Z,1.15
2022-10-12T07:32:15.431Z,1.17
2022-10-12T07:34:44.727Z,1.37
2022-10-12T07:37:11.944Z,1.40
2022-10-12T07:39:41.267Z,1.17
2022-10-12T07:42:08.283Z,1.42
2022-10-12T07:44:35.748Z,1.02
2022-10-12T07:47:02.469Z,0.85
2022-10-12T07:49:29.542Z,1.60
2022-10-12T07:51:56.415Z,1.58
2022-10-12T07:54:28.977Z,0.90
2022-10-12T07:56:56.865Z,1.10
2022-10-12T07:59:24.208Z,1.40
2022-10-12T08:01:50.868Z,1.12
2022-10-12T08:04:17.920Z,1.42
2022-10-12T08:06:44.697Z,0.75
2022-10-12T08:09:11.382Z,1.25
2022-10-12T08:11:42.136Z,0.88
2022-10-12T08:14:16.172Z,0.82
2022-10-12T08:16:44.650Z,1.17
2022-10-12T08:19:11.692Z,0.90
2022-10-12T08:21:38.481Z,0.62
2022-10-12T08:24:05.838Z,1.20
2022-10-12T08:26:33.257Z,1.62
2022-10-12T08:29:01.989Z,1.15
2022-10-12T08:31:29.002Z,1.37
2022-10-12T08:33:57.764Z,0.95
2022-10-12T08:36:24.859Z,0.57
2022-10-12T08:38:54.127Z,0.93
2022-10-12T08:42:03.592Z,0.93
2022-10-12T08:44:48.263Z,1.30
2022-10-12T08:47:33.891Z,0.70
2022-10-12T08:50:04.850Z,0.62
2022-10-12T08:52:44.037Z,1.08
2022-10-12T08:55:34.444Z,0.65
2022-10-12T08:58:02.414Z,0.60
2022-10-12T09:03:19.487Z,0.60
2022-10-12T09:05:54.340Z,0.20
2022-10-12T09:08:57.822Z,0.73
2022-10-12T09:11:46.920Z,0.52
2022-10-12T09:14:25.013Z,0.98
2022-10-12T09:16:55.370Z,0.60
2022-10-12T12:26:55.001Z,0.10
2022-10-12T12:29:29.854Z,0.80
2022-10-12T12:31:59.164Z,0.20
2022-10-12T12:34:28.020Z,0.22
2022-10-12T12:36:55.227Z,0.52
2022-10-12T12:39:25.836Z,0.20
2022-10-12T12:42:01.367Z,0.00
2022-10-12T12:44:37.897Z,0.20
2022-10-12T12:47:26.081Z,0.30
2022-10-12T12:49:57.441Z,0.32
2022-10-12T12:52:24.320Z,0.00
2022-10-12T12:55:15.959Z,0.20
2022-10-12T12:57:55.781Z,0.20
2022-10-12T13:00:23.902Z,0.45
2022-10-12T13:03:23.797Z,0.20
2022-10-12T13:06:28.003Z,0.30
2022-10-12T13:09:05.250Z,0.20
2022-10-12T13:11:52.340Z,0.30
2022-10-12T13:14:34.226Z,0.30
2022-10-12T13:19:55.554Z,0.30
2022-10-12T13:22:32.757Z,0.05
2022-10-12T13:25:04.471Z,0.20
2022-10-12T13:27:46.667Z,0.00
2022-10-12T13:30:23.671Z,0.00
2022-10-12T13:32:58.456Z,0.08
2022-10-12T13:35:58.863Z,0.15
2022-10-12T13:38:27.799Z,0.00
2022-10-12T13:41:04.003Z,0.10
2022-10-12T13:43:40.432Z,0.20
2022-10-12T13:46:07.532Z,0.17
2022-10-12T13:48:58.302Z,0.20
2022-10-12T13:51:24.975Z,0.08
2022-10-12T13:53:51.631Z,0.08
2022-10-12T13:56:20.867Z,0.00
2022-10-12T13:58:48.186Z,0.10
2022-10-12T14:01:14.816Z,0.17
2022-10-12T14:03:44.631Z,0.30
2022-10-12T14:06:31.083Z,0.20
2022-10-12T14:09:06.586Z,0.40
2022-10-12T14:11:34.598Z,0.10
2022-10-12T14:14:02.493Z,0.40
2022-10-12T14:16:29.328Z,0.20
2022-10-12T14:18:56.053Z,0.37
2022-10-12T14:21:33.318Z,0.25
2022-10-12T14:24:09.311Z,0.20
2022-10-12T14:26:42.088Z,0.20
2022-10-12T14:29:33.600Z,0.32
2022-10-12T14:32:03.516Z,0.30
2022-10-12T14:34:36.865Z,0.28
2022-10-12T14:37:05.883Z,0.37
2022-10-12T14:39:33.440Z,0.22
2022-10-12T14:42:27.698Z,0.28
2022-10-12T14:44:55.310Z,0.10
2022-10-12T14:47:25.168Z,0.20
2022-10-12T14:49:54.318Z,0.10
2022-10-12T14:52:23.333Z,0.65
2022-10-12T14:57:24.507Z,0.15
2022-10-12T14:59:51.356Z,0.28
2022-10-12T15:02:23.308Z,0.20
2022-10-12T15:04:50.713Z,0.20
2022-10-12T15:07:27.717Z,0.28
2022-10-12T15:09:54.667Z,0.30
2022-10-12T15:12:23.406Z,0.35
2022-10-12T15:14:56.070Z,0.20
2022-10-12T15:17:23.095Z,0.30
2022-10-12T15:19:51.736Z,0.30
2022-10-12T15:22:26.784Z,0.10
2022-10-12T15:24:54.673Z,0.85
2022-10-12T15:27:21.907Z,0.43
2022-10-12T15:29:48.773Z,0.32
2022-10-12T15:32:18.358Z,0.60
2022-10-12T15:34:45.662Z,0.30
2022-10-12T15:37:12.486Z,0.32
2022-10-12T15:39:39.593Z,0.17
2022-10-12T15:42:06.215Z,0.15
2022-10-12T15:44:39.794Z,0.20
2022-10-12T15:47:06.970Z,0.75
2022-10-12T15:49:33.639Z,0.50
2022-10-12T15:52:00.398Z,0.55
2022-10-12T15:54:27.397Z,0.80
2022-10-12T15:56:54.616Z,0.60
2022-10-12T15:59:21.706Z,0.45
2022-10-12T16:01:48.780Z,0.80
2022-10-12T16:04:21.486Z,0.40
2022-10-12T16:06:48.176Z,0.35
2022-10-12T16:09:15.109Z,0.30
2022-10-12T16:11:41.806Z,0.30
2022-10-12T16:14:12.577Z,1.17
2022-10-12T16:16:39.575Z,0.63
2022-10-12T16:19:06.654Z,0.35
2022-10-12T16:21:33.379Z,0.50
2022-10-12T16:24:00.315Z,0.40
2022-10-12T16:26:27.346Z,0.60
2022-10-12T16:28:54.211Z,0.60
2022-10-12T16:31:21.296Z,0.20
2022-10-12T16:33:47.961Z,0.40
2022-10-12T16:36:16.476Z,0.50
2022-10-12T16:38:44.027Z,0.28
2022-10-12T16:41:16.091Z,0.50
2022-10-12T16:43:43.812Z,0.70
2022-10-12T16:46:10.902Z,0.52
2022-10-12T16:48:37.633Z,0.35
2022-10-12T16:51:09.112Z,0.50
2022-10-12T16:53:35.905Z,0.35
2022-10-12T16:56:03.081Z,0.30
2022-10-12T16:58:30.068Z,0.43
2022-10-12T17:00:56.871Z,0.50
2022-10-12T17:03:24.948Z,0.47
2022-10-12T17:05:59.570Z,0.40
2022-10-12T17:08:26.428Z,0.70
2022-10-12T17:10:53.509Z,0.60
2022-10-12T17:13:20.178Z,0.68
2022-10-12T17:15:46.987Z,0.35
2022-10-12T17:18:14.003Z,0.55
2022-10-12T17:20:40.696Z,0.50
2022-10-12T17:23:07.333Z,0.80
2022-10-12T17:25:34.360Z,0.60
2022-10-12T17:28:01.051Z,0.88
2022-10-12T17:30:27.756Z,0.88
2022-10-12T17:32:54.730Z,0.65
2022-10-12T17:35:21.441Z,0.85
2022-10-12T17:37:48.167Z,0.50
2022-10-12T17:40:15.611Z,0.57
2022-10-12T17:42:42.277Z,0.55
2022-10-12T17:45:09.446Z,0.47
2022-10-12T17:47:36.532Z,0.85
2022-10-12T17:50:03.474Z,1.12
2022-10-12T17:52:30.132Z,1.00
2022-10-12T17:54:57.161Z,0.68
2022-10-12T17:57:23.831Z,0.35
2022-10-12T17:59:50.459Z,1.40
2022-10-12T18:02:17.433Z,0.98
2022-10-12T18:04:44.393Z,0.85
2022-10-12T18:07:11.113Z,0.98
2022-10-12T18:09:37.885Z,0.60
2022-10-12T18:12:05.365Z,0.43
2022-10-12T18:14:32.099Z,1.27
2022-10-12T18:16:58.897Z,0.98
2022-10-12T18:19:25.891Z,0.73
2022-10-12T18:21:52.604Z,0.80
2022-10-12T18:24:20.715Z,1.00
2022-10-12T18:26:48.055Z,0.40
2022-10-12T18:29:16.434Z,0.70
2022-10-12T18:31:43.182Z,0.75
2022-10-12T18:34:10.413Z,1.00
2022-10-12T18:36:37.545Z,0.90
2022-10-12T18:39:04.428Z,0.90
2022-10-12T18:41:31.559Z,1.20
2022-10-12T18:43:59.948Z,0.68
2022-10-12T18:46:28.695Z,0.82
2022-10-12T18:48:56.201Z,0.40
2022-10-12T18:51:26.850Z,0.93
2022-10-12T18:53:54.529Z,1.02
2022-10-12T18:56:21.903Z,0.90
2022-10-12T18:58:48.774Z,1.10
2022-10-12T19:01:18.186Z,0.60
2022-10-12T19:03:45.879Z,0.82
2022-10-12T19:06:18.204Z,1.00
2022-10-12T19:08:45.574Z,1.05
2022-10-12T19:11:12.778Z,1.17
2022-10-12T19:13:40.874Z,1.85
2022-10-12T19:16:10.498Z,0.93
2022-10-12T19:18:37.880Z,0.77
2022-10-12T19:21:06.664Z,1.02
2022-10-12T19:23:34.111Z,1.10
2022-10-12T19:26:06.505Z,0.80
2022-10-12T19:28:34.247Z,0.90
2022-10-12T19:31:02.186Z,1.00
2022-10-12T19:33:29.281Z,1.08
2022-10-12T19:35:56.302Z,1.12
2022-10-12T19:38:23.066Z,0.93
2022-10-12T19:40:51.986Z,0.75
2022-10-12T19:43:18.926Z,1.23
2022-10-12T19:45:45.666Z,0.60
2022-10-12T19:48:12.424Z,0.77
2022-10-12T19:50:39.750Z,1.20
2022-10-12T19:53:06.788Z,0.85
2022-10-12T19:55:34.071Z,1.27
2022-10-12T19:58:01.656Z,1.17
2022-10-12T20:00:28.700Z,0.77
2022-10-12T20:02:55.764Z,1.25
2022-10-12T20:05:22.531Z,1.25
2022-10-12T20:07:49.310Z,1.12
2022-10-12T20:10:16.341Z,1.00
2022-10-12T20:12:43.044Z,1.55
2022-10-12T20:15:10.657Z,1.33
2022-10-12T20:17:38.800Z,1.40
2022-10-12T20:20:07.040Z,0.98
2022-10-12T20:22:33.845Z,0.90
2022-10-12T20:25:00.999Z,1.30
2022-10-12T20:27:28.645Z,0.65
2022-10-12T20:29:55.313Z,0.80
2022-10-12T20:32:22.223Z,0.60
2022-10-12T20:34:52.455Z,1.02
2022-10-12T20:37:20.702Z,0.93
2022-10-12T20:39:49.813Z,1.17
2022-10-12T20:42:20.676Z,0.70
2022-10-12T20:44:48.847Z,0.95
2022-10-12T20:47:15.582Z,0.80
2022-10-12T20:49:42.379Z,1.05
2022-10-12T20:52:10.449Z,1.12
2022-10-12T20:54:37.408Z,0.60
2022-10-12T20:57:04.880Z,0.75
2022-10-12T20:59:34.520Z,0.80
2022-10-12T21:02:01.217Z,1.02
2022-10-12T21:04:30.520Z,0.82
2022-10-12T21:06:59.628Z,0.90
2022-10-12T21:09:26.265Z,0.50
2022-10-12T21:11:54.041Z,0.88
2022-10-12T21:14:21.333Z,1.20
2022-10-12T21:16:48.094Z,0.62
2022-10-12T21:19:15.827Z,1.23
2022-10-12T21:21:42.982Z,0.60
2022-10-12T21:24:10.622Z,0.90
2022-10-12T21:26:37.442Z,0.60
2022-10-12T21:29:05.188Z,0.50
2022-10-12T21:31:33.001Z,0.47
2022-10-12T21:34:05.542Z,0.50
2022-10-12T21:36:36.241Z,1.12
2022-10-12T21:39:14.705Z,0.60
2022-10-12T21:41:42.789Z,1.02
2022-10-12T21:44:10.669Z,0.95
2022-10-12T21:46:37.604Z,1.17
2022-10-12T21:49:07.923Z,1.25
2022-10-12T21:51:36.651Z,1.12
2022-10-12T21:54:06.405Z,0.57
2022-10-12T21:56:35.730Z,0.70
2022-10-12T21:59:04.437Z,0.93
2022-10-12T22:01:36.830Z,1.23
2022-10-12T22:04:06.758Z,0.60
2022-10-12T22:06:34.414Z,0.68
2022-10-12T22:09:05.454Z,0.88
2022-10-12T22:11:33.786Z,1.45
2022-10-12T22:14:03.612Z,0.68
2022-10-12T22:16:30.618Z,0.88
2022-10-12T22:19:02.748Z,0.70
2022-10-12T22:21:32.412Z,0.62
2022-10-12T22:24:00.504Z,0.93
2022-10-12T22:26:27.722Z,0.57
2022-10-12T22:28:55.289Z,0.68
2022-10-12T22:31:24.679Z,1.00
2022-10-12T22:33:52.529Z,1.12
2022-10-12T22:36:19.332Z,1.40
2022-10-12T22:38:46.517Z,1.00
2022-10-12T22:41:18.646Z,1.45
2022-10-12T22:43:46.737Z,0.88
2022-10-12T22:46:13.707Z,0.90
2022-10-12T22:48:40.344Z,0.68
2022-10-12T22:51:11.779Z,0.70
2022-10-12T22:53:38.445Z,1.05
2022-10-12T22:56:13.539Z,0.90
2022-10-12T22:58:40.662Z,1.08
2022-10-12T23:01:10.854Z,1.20
2022-10-12T23:03:38.094Z,0.65
2022-10-12T23:06:07.378Z,0.90
2022-10-12T23:08:34.168Z,1.10
2022-10-12T23:11:10.406Z,0.80
2022-10-12T23:13:38.530Z,1.23
2022-10-12T23:16:08.098Z,1.10
2022-10-12T23:18:35.639Z,1.45
2022-10-12T23:21:09.167Z,0.57
2022-10-12T23:23:37.645Z,0.70
2022-10-12T23:26:07.957Z,1.05
2022-10-12T23:28:35.114Z,0.75
2022-10-12T23:31:10.286Z,1.15
2022-10-12T23:33:37.423Z,0.70
2022-10-12T23:36:08.115Z,1.00
2022-10-12T23:38:37.249Z,0.70
2022-10-12T23:41:04.903Z,1.33
2022-10-12T23:43:32.065Z,0.88
2022-10-12T23:46:01.257Z,1.05
2022-10-12T23:48:28.645Z,0.80
2022-10-12T23:50:55.920Z,1.02
2022-10-12T23:53:24.219Z,0.80
2022-10-12T23:55:52.042Z,0.90
2022-10-12T23:58:19.081Z,0.70
